Time;durP1;ratioP1;P1;durP2;ratioP2;P2;SDS_P1;SDS_P2;PMS_P1;PMS_P2;Temp;Humidity;BMP_temperature;BMP_pressure;BME280_temperature;BME280_humidity;BME280_pressure;Samples;Min_cycle;Max_cycle;Signal;HPM_P1;HPM_P2
2022/06/02 00:02:41;;;;;;;9.13;6.00;;;12.40;99.90;;;;;;5016494;28;20274;-46
2022/06/02 00:05:29;;;;;;;6.13;5.45;;;12.30;99.90;;;;;;5090990;28;20177;-47
2022/06/02 00:08:16;;;;;;;6.00;5.40;;;12.30;99.90;;;;;;5098816;28;20294;-47
2022/06/02 00:11:13;;;;;;;7.30;5.78;;;12.30;99.90;;;;;;5098511;28;20240;-47
2022/06/02 00:13:48;;;;;;;8.90;5.13;;;12.30;99.90;;;;;;5094359;28;20211;-49
2022/06/02 00:16:32;;;;;;;7.60;5.60;;;12.30;99.90;;;;;;5098814;28;20163;-49
2022/06/02 00:19:11;;;;;;;9.75;5.50;;;12.30;99.90;;;;;;5080545;28;20176;-47
2022/06/02 00:21:50;;;;;;;7.53;5.93;;;12.30;99.90;;;;;;5098497;28;20161;-49
2022/06/02 00:24:24;;;;;;;7.15;6.20;;;12.20;99.90;;;;;;5098421;28;20169;-47
2022/06/02 00:26:59;;;;;;;8.52;6.25;;;12.20;99.90;;;;;;5080149;28;20193;-49
2022/06/02 00:29:40;;;;;;;8.55;6.43;;;12.20;99.90;;;;;;5098752;28;20257;-47
2022/06/02 00:32:17;;;;;;;7.70;6.10;;;12.10;99.90;;;;;;5098321;28;20161;-48
2022/06/02 00:34:54;;;;;;;8.00;5.60;;;12.10;99.90;;;;;;5098335;28;20172;-48
2022/06/02 00:37:23;;;;;;;7.20;5.82;;;12.10;99.90;;;;;;5098297;28;20176;-47
2022/06/02 00:39:51;;;;;;;6.35;5.72;;;12.00;99.90;;;;;;5098334;28;20176;-49
2022/06/02 00:42:33;;;;;;;10.07;6.05;;;11.90;99.90;;;;;;5098547;28;20200;-49
2022/06/02 00:45:04;;;;;;;6.70;5.80;;;11.90;99.90;;;;;;5098258;28;20173;-49
2022/06/02 00:47:46;;;;;;;9.27;5.78;;;11.90;99.90;;;;;;5098394;28;20221;-49
2022/06/02 00:50:23;;;;;;;6.78;5.82;;;11.90;99.90;;;;;;5098293;28;20161;-47
2022/06/02 00:53:10;;;;;;;10.02;5.97;;;11.80;99.90;;;;;;5098001;28;20220;-50
2022/06/02 00:59:24;;;;;;;8.73;6.32;;;11.80;99.90;;;;;;5098454;28;20172;-49
2022/06/02 01:01:49;;;;;;;10.63;5.88;;;11.70;99.90;;;;;;5094772;28;20165;-48
2022/06/02 01:04:17;;;;;;;9.05;6.22;;;11.70;99.90;;;;;;5095188;28;20267;-47
2022/06/02 01:07:03;;;;;;;8.60;6.30;;;11.60;99.90;;;;;;5094764;28;20626;-48
2022/06/02 01:09:43;;;;;;;13.40;7.25;;;11.50;99.90;;;;;;5095063;28;20257;-49
2022/06/02 01:12:46;;;;;;;11.05;7.00;;;11.40;99.90;;;;;;5094791;28;20183;-49
2022/06/02 01:15:25;;;;;;;7.70;6.50;;;11.30;99.90;;;;;;5094788;28;20195;-48
2022/06/02 01:18:13;;;;;;;12.70;6.35;;;11.20;99.90;;;;;;5094677;28;20177;-48
2022/06/02 01:20:51;;;;;;;10.27;6.13;;;11.30;99.90;;;;;;5094573;28;20165;-47
2022/06/02 01:23:37;;;;;;;8.05;7.07;;;11.30;99.90;;;;;;5094738;28;20166;-50
2022/06/02 01:26:40;;;;;;;8.95;6.40;;;11.40;99.90;;;;;;5094596;28;20169;-49
2022/06/02 01:29:24;;;;;;;9.43;6.78;;;11.40;99.90;;;;;;5094680;28;20177;-48
2022/06/02 01:32:11;;;;;;;8.02;6.28;;;11.30;99.90;;;;;;5094365;28;20165;-48
2022/06/02 01:34:51;;;;;;;12.70;6.45;;;11.20;99.90;;;;;;5076198;28;20261;-47
2022/06/02 01:37:30;;;;;;;10.45;6.82;;;11.10;99.90;;;;;;5094217;28;20166;-48
2022/06/02 01:40:11;;;;;;;13.13;6.38;;;11.10;99.90;;;;;;5094503;28;20683;-49
2022/06/02 01:42:52;;;;;;;11.40;8.18;;;11.00;99.90;;;;;;5094225;28;20248;-50
2022/06/02 01:45:57;;;;;;;12.18;7.57;;;11.00;99.90;;;;;;5094194;28;20584;-49
2022/06/02 01:48:46;;;;;;;11.80;6.90;;;11.00;99.90;;;;;;5093205;28;20216;-49
2022/06/02 01:51:44;;;;;;;12.18;6.68;;;10.90;99.90;;;;;;5094091;28;20162;-48
2022/06/02 01:54:37;;;;;;;9.07;6.72;;;10.80;99.90;;;;;;5093974;28;20191;-50
2022/06/02 01:57:45;;;;;;;8.48;6.20;;;10.70;99.90;;;;;;5082953;28;20266;-50
2022/06/02 02:00:17;;;;;;;10.48;7.03;;;10.70;99.90;;;;;;5075612;28;20531;-50
2022/06/02 02:02:54;;;;;;;10.93;6.82;;;10.70;99.90;;;;;;5094071;28;20272;-49
2022/06/02 02:05:44;;;;;;;14.30;7.70;;;10.60;99.90;;;;;;5093715;28;20179;-50
2022/06/02 02:08:38;;;;;;;8.88;7.05;;;10.60;99.90;;;;;;5093523;28;20232;-49
2022/06/02 02:11:07;;;;;;;9.15;6.85;;;10.50;99.90;;;;;;5093709;28;20157;-47
2022/06/02 02:13:38;;;;;;;9.52;7.30;;;10.40;99.90;;;;;;5092624;28;20169;-47
2022/06/02 02:16:17;;;;;;;9.15;7.18;;;10.40;99.90;;;;;;5093560;28;20201;-47
2022/06/02 02:18:53;;;;;;;10.52;8.35;;;10.40;99.90;;;;;;5093476;28;20161;-46
2022/06/02 02:22:04;;;;;;;11.32;7.63;;;10.40;99.90;;;;;;5093493;28;20695;-46
2022/06/02 02:24:35;;;;;;;13.75;8.07;;;10.40;99.90;;;;;;5068173;28;20246;-47
2022/06/02 02:27:21;;;;;;;9.68;8.50;;;10.40;99.90;;;;;;5093304;28;20193;-47
2022/06/02 02:30:00;;;;;;;10.27;8.43;;;10.40;99.90;;;;;;5093531;28;20610;-47
2022/06/02 02:32:58;;;;;;;13.77;8.80;;;10.40;99.90;;;;;;5093419;28;20165;-49
2022/06/02 02:35:50;;;;;;;12.13;8.32;;;10.40;99.90;;;;;;5093473;28;20197;-47
2022/06/02 02:38:48;;;;;;;12.63;8.23;;;10.40;99.90;;;;;;5093095;28;20166;-48
2022/06/02 02:41:43;;;;;;;11.82;8.30;;;10.40;99.90;;;;;;5093016;28;20699;-46
2022/06/02 02:44:15;;;;;;;14.02;9.57;;;10.40;99.90;;;;;;5082096;28;20181;-48
2022/06/02 02:46:53;;;;;;;14.23;9.25;;;10.40;99.90;;;;;;5092886;28;20189;-47
2022/06/02 02:49:40;;;;;;;12.43;8.63;;;10.40;99.90;;;;;;5093125;28;20177;-47
2022/06/02 02:52:19;;;;;;;14.00;8.70;;;10.50;99.90;;;;;;5092790;28;20553;-47
2022/06/02 02:54:58;;;;;;;17.35;9.43;;;10.50;99.90;;;;;;5092807;28;20169;-46
2022/06/02 02:58:03;;;;;;;9.82;8.15;;;10.30;99.90;;;;;;5093003;28;20161;-48
2022/06/02 03:00:59;;;;;;;14.80;9.05;;;10.30;99.90;;;;;;5075174;28;20570;-46
2022/06/02 03:03:41;;;;;;;16.70;8.82;;;10.30;99.90;;;;;;5092909;28;20165;-47
2022/06/02 03:06:20;;;;;;;14.50;8.77;;;10.30;99.90;;;;;;5092671;28;20177;-47
2022/06/02 03:09:02;;;;;;;12.43;8.82;;;10.30;99.90;;;;;;5075424;28;20666;-47
2022/06/02 03:11:52;;;;;;;16.02;9.20;;;10.30;99.90;;;;;;5092944;28;20184;-46
2022/06/02 03:14:47;;;;;;;11.88;8.95;;;10.20;99.90;;;;;;5092472;28;20634;-48
2022/06/02 03:17:23;;;;;;;16.85;8.82;;;10.20;99.90;;;;;;5092572;28;20172;-48
2022/06/02 03:20:17;;;;;;;20.58;9.73;;;10.20;99.90;;;;;;5092414;28;20177;-48
2022/06/02 03:22:52;;;;;;;13.65;8.85;;;10.30;99.90;;;;;;5092293;28;20161;-48
2022/06/02 03:25:31;;;;;;;14.68;9.13;;;10.30;99.90;;;;;;5091951;28;20176;-47
2022/06/02 03:28:13;;;;;;;17.35;9.13;;;10.30;99.90;;;;;;5092477;28;20255;-46
2022/06/02 03:31:07;;;;;;;14.70;9.63;;;10.20;99.90;;;;;;5092443;28;20512;-47
2022/06/02 03:34:05;;;;;;;16.60;9.18;;;10.10;99.90;;;;;;5092137;28;20161;-46
2022/06/02 03:36:49;;;;;;;22.83;9.45;;;10.10;99.90;;;;;;5092392;28;20260;-47
2022/06/02 03:39:42;;;;;;;16.55;9.60;;;10.10;99.90;;;;;;5092152;28;20208;-47
2022/06/02 03:42:23;;;;;;;17.30;9.93;;;10.00;99.90;;;;;;5075682;28;20165;-50
2022/06/02 03:45:02;;;;;;;15.40;9.65;;;9.90;99.90;;;;;;5092342;28;20188;-47
2022/06/02 03:47:54;;;;;;;15.85;10.20;;;10.00;99.90;;;;;;5092310;28;20197;-46
2022/06/02 03:50:26;;;;;;;18.42;10.07;;;10.10;99.90;;;;;;5091975;28;20187;-47
2022/06/02 03:53:37;;;;;;;13.38;10.85;;;10.10;99.90;;;;;;5091858;28;20738;-49
2022/06/02 03:56:28;;;;;;;18.88;9.77;;;10.10;99.90;;;;;;5092158;28;20176;-48
2022/06/02 03:58:59;;;;;;;14.85;9.73;;;10.10;99.90;;;;;;5092184;28;20666;-47
2022/06/02 04:01:28;;;;;;;18.30;11.73;;;10.20;99.90;;;;;;5092218;28;20171;-48
2022/06/02 04:04:00;;;;;;;14.75;10.40;;;10.20;99.90;;;;;;5092161;28;20165;-48
2022/06/02 04:06:40;;;;;;;13.50;10.68;;;10.10;99.90;;;;;;5092065;28;20201;-50
2022/06/02 04:09:24;;;;;;;15.25;9.68;;;10.20;99.90;;;;;;5092003;28;20181;-46
2022/06/02 04:15:29;;;;;;;14.88;11.15;;;10.20;99.90;;;;;;5092045;28;20673;-47
2022/06/02 04:18:22;;;;;;;16.20;10.02;;;10.20;99.90;;;;;;5073943;28;20165;-46
2022/06/02 04:21:01;;;;;;;13.35;10.30;;;10.10;99.90;;;;;;5091674;28;20169;-47
2022/06/02 04:23:58;;;;;;;16.92;11.05;;;10.10;99.90;;;;;;5091886;28;20161;-51
2022/06/02 04:26:57;;;;;;;14.30;11.00;;;10.30;99.90;;;;;;5092214;28;20173;-46
2022/06/02 04:30:00;;;;;;;13.30;10.02;;;10.40;99.90;;;;;;5092108;28;20184;-46
2022/06/02 04:32:40;;;;;;;14.25;10.63;;;10.60;99.90;;;;;;5091934;28;20176;-48
2022/06/02 04:35:12;;;;;;;10.75;9.63;;;10.70;99.90;;;;;;5091626;28;20252;-46
2022/06/02 04:37:53;;;;;;;16.48;10.07;;;10.60;99.90;;;;;;5076629;28;20205;-46
2022/06/02 04:40:42;;;;;;;14.40;10.52;;;10.80;99.90;;;;;;5095442;28;20172;-51
2022/06/02 04:43:26;;;;;;;12.52;9.27;;;11.00;99.90;;;;;;5095326;28;20196;-49
2022/06/02 04:46:06;;;;;;;11.90;9.45;;;11.10;99.90;;;;;;5095112;28;20191;-49
2022/06/02 04:49:08;;;;;;;12.50;9.85;;;11.20;99.90;;;;;;5095062;28;20197;-50
2022/06/02 04:51:51;;;;;;;14.32;9.55;;;11.30;99.90;;;;;;5094792;28;20598;-47
2022/06/02 04:54:38;;;;;;;13.48;10.68;;;11.30;99.90;;;;;;5094956;28;20170;-47
2022/06/02 04:57:29;;;;;;;12.32;10.15;;;11.20;99.90;;;;;;5094875;28;20247;-47
2022/06/02 05:00:07;;;;;;;14.20;12.05;;;11.30;99.90;;;;;;5095240;28;20189;-49
2022/06/02 05:02:41;;;;;;;14.55;11.05;;;11.40;99.90;;;;;;5095068;28;20284;-50
2022/06/02 05:05:38;;;;;;;13.18;10.45;;;11.60;99.90;;;;;;5094755;28;20165;-50
2022/06/02 05:08:31;;;;;;;12.38;9.82;;;11.70;99.90;;;;;;5095046;28;20209;-49
2022/06/02 05:11:21;;;;;;;12.05;10.32;;;11.70;99.90;;;;;;5095032;28;20161;-49
2022/06/02 05:14:27;;;;;;;12.73;11.02;;;11.90;99.90;;;;;;5094685;28;20520;-49
2022/06/02 05:17:13;;;;;;;11.80;10.40;;;12.00;99.90;;;;;;5094922;28;20172;-48
2022/06/02 05:20:20;;;;;;;14.98;10.13;;;12.10;99.90;;;;;;5094650;28;20165;-48
2022/06/02 05:23:06;;;;;;;11.40;9.75;;;12.20;99.90;;;;;;5094555;28;20165;-49
2022/06/02 05:25:53;;;;;;;17.98;13.98;;;12.30;99.90;;;;;;5094514;28;20158;-49
2022/06/02 05:28:19;;;;;;;11.70;10.50;;;12.40;99.90;;;;;;5094395;28;20563;-50
2022/06/02 05:31:15;;;;;;;11.00;9.73;;;12.50;99.90;;;;;;5094387;28;20162;-49
2022/06/02 05:34:10;;;;;;;13.23;10.60;;;12.50;99.90;;;;;;5094270;28;20176;-50
2022/06/02 05:36:46;;;;;;;12.20;11.05;;;12.80;99.90;;;;;;5094278;28;20613;-49
2022/06/02 05:39:55;;;;;;;12.50;11.13;;;12.80;99.90;;;;;;5094248;28;20625;-50
2022/06/02 05:42:32;;;;;;;11.27;10.18;;;12.90;99.90;;;;;;5094194;28;20169;-48
2022/06/02 05:45:06;;;;;;;13.07;11.55;;;13.00;99.90;;;;;;5094131;28;20157;-46
2022/06/02 05:47:44;;;;;;;11.80;10.60;;;13.00;99.90;;;;;;5093711;28;20193;-50
2022/06/02 05:50:35;;;;;;;13.18;11.20;;;13.00;99.90;;;;;;5075906;28;20281;-49
2022/06/02 05:53:38;;;;;;;12.07;10.70;;;13.10;99.90;;;;;;5057421;28;20705;-49
2022/06/02 05:56:26;;;;;;;13.07;11.77;;;13.10;99.90;;;;;;5053745;28;20191;-49
2022/06/02 05:59:23;;;;;;;12.32;11.02;;;13.20;99.90;;;;;;5053660;28;20228;-50
2022/06/02 06:02:21;;;;;;;13.90;12.40;;;13.30;99.90;;;;;;5053572;28;20163;-46
2022/06/02 06:05:05;;;;;;;13.63;12.23;;;13.40;99.90;;;;;;5053546;28;20174;-47
2022/06/02 06:07:49;;;;;;;15.48;12.75;;;13.60;99.90;;;;;;5053352;28;20202;-48
2022/06/02 06:10:39;;;;;;;16.95;13.35;;;13.90;99.90;;;;;;5053522;28;20166;-48
2022/06/02 06:13:28;;;;;;;15.77;13.23;;;13.70;99.90;;;;;;5053647;28;20544;-48
2022/06/02 06:16:00;;;;;;;17.48;12.75;;;13.80;99.90;;;;;;5053641;28;20163;-49
2022/06/02 06:18:43;;;;;;;15.35;12.38;;;13.90;99.90;;;;;;5053522;28;20642;-50
2022/06/02 06:21:17;;;;;;;18.23;12.95;;;14.00;99.90;;;;;;5053397;28;20594;-50
2022/06/02 06:24:22;;;;;;;14.43;12.98;;;14.10;99.90;;;;;;5054595;28;20628;-50
2022/06/02 06:27:11;;;;;;;15.90;13.85;;;14.10;99.90;;;;;;5071070;28;20190;-50
2022/06/02 06:29:53;;;;;;;15.95;12.85;;;14.30;99.90;;;;;;5059751;28;20180;-50
2022/06/02 06:32:21;;;;;;;14.93;12.65;;;14.40;99.90;;;;;;5051753;28;20159;-48
2022/06/02 06:34:59;;;;;;;16.17;12.95;;;14.50;99.90;;;;;;5051521;28;20194;-53
2022/06/02 06:37:55;;;;;;;18.10;13.52;;;14.60;99.90;;;;;;5052154;28;20265;-53
2022/06/02 06:40:46;;;;;;;18.27;13.75;;;14.60;99.90;;;;;;5051567;28;20182;-54
2022/06/02 06:43:30;;;;;;;17.33;13.43;;;14.70;99.90;;;;;;5051730;28;20167;-54
2022/06/02 06:46:24;;;;;;;23.38;15.07;;;14.80;99.90;;;;;;5051641;28;20267;-50
2022/06/02 06:48:49;;;;;;;18.38;13.52;;;14.80;99.90;;;;;;5051064;28;20265;-48
2022/06/02 06:51:32;;;;;;;16.17;14.32;;;14.80;99.90;;;;;;5052349;28;20171;-52
2022/06/02 06:54:04;;;;;;;17.45;14.13;;;14.70;99.90;;;;;;5091804;28;20555;-51
2022/06/02 06:56:39;;;;;;;17.58;14.48;;;15.00;99.90;;;;;;5091500;28;20173;-53
2022/06/02 06:59:27;;;;;;;19.33;14.05;;;14.90;99.90;;;;;;5090672;28;20598;-52
2022/06/02 07:02:12;;;;;;;19.00;14.00;;;14.70;99.90;;;;;;5091574;28;20169;-53
2022/06/02 07:04:49;;;;;;;15.57;13.90;;;14.90;99.90;;;;;;5091274;28;20161;-52
2022/06/02 07:07:41;;;;;;;15.50;13.45;;;15.00;99.90;;;;;;5091269;28;20225;-52
2022/06/02 07:10:13;;;;;;;16.80;14.52;;;15.00;99.90;;;;;;5044002;28;20177;-52
2022/06/02 07:13:19;;;;;;;17.80;13.27;;;15.20;99.90;;;;;;5091047;28;20200;-52
2022/06/02 07:15:58;;;;;;;16.80;12.70;;;15.30;99.90;;;;;;5090716;28;20173;-52
2022/06/02 07:18:48;;;;;;;15.38;12.68;;;15.30;99.90;;;;;;5091371;28;20687;-52
2022/06/02 07:21:48;;;;;;;14.32;12.23;;;15.40;99.90;;;;;;5091338;28;20176;-52
2022/06/02 07:24:34;;;;;;;15.02;12.43;;;15.50;99.90;;;;;;5090987;28;20649;-52
2022/06/02 07:27:12;;;;;;;16.23;12.32;;;15.80;99.90;;;;;;5072887;28;20197;-52
2022/06/02 07:29:55;;;;;;;13.70;11.48;;;16.10;99.90;;;;;;5090960;28;20173;-52
2022/06/02 07:32:30;;;;;;;15.60;12.52;;;16.20;99.90;;;;;;5071176;28;20248;-53
2022/06/02 07:35:24;;;;;;;13.20;11.75;;;16.30;99.90;;;;;;5091406;28;20518;-53
2022/06/02 07:38:12;;;;;;;14.35;11.68;;;16.50;99.90;;;;;;5090626;28;20184;-51
2022/06/02 07:40:46;;;;;;;14.57;12.38;;;16.80;99.90;;;;;;5091060;28;20173;-52
2022/06/02 07:43:28;;;;;;;13.35;10.52;;;16.80;99.90;;;;;;5090651;28;20183;-52
2022/06/02 07:46:40;;;;;;;12.90;11.60;;;16.80;99.90;;;;;;5091052;28;20223;-51
2022/06/02 07:49:23;;;;;;;11.20;9.27;;;16.40;99.90;;;;;;5021348;28;20193;-52
2022/06/02 07:52:09;;;;;;;11.23;9.90;;;16.50;99.90;;;;;;5091335;28;20208;-51
2022/06/02 07:54:49;;;;;;;13.82;11.00;;;16.80;99.90;;;;;;5090966;28;20165;-52
2022/06/02 07:57:39;;;;;;;12.40;10.73;;;16.70;99.90;;;;;;5090888;28;20161;-53
2022/06/02 08:00:20;;;;;;;12.43;11.02;;;16.40;99.90;;;;;;5090936;28;20176;-53
2022/06/02 08:03:21;;;;;;;13.93;10.27;;;17.00;99.90;;;;;;5090706;28;20176;-52
2022/06/02 08:05:56;;;;;;;16.23;12.10;;;17.30;99.90;;;;;;5090701;28;20165;-52
2022/06/02 08:08:40;;;;;;;25.15;15.57;;;17.10;99.90;;;;;;5090665;28;20256;-52
2022/06/02 08:11:20;;;;;;;12.70;11.38;;;16.80;99.90;;;;;;5075975;28;20205;-51
2022/06/02 08:14:01;;;;;;;14.98;12.13;;;16.40;99.90;;;;;;5095006;28;20177;-52
2022/06/02 08:16:47;;;;;;;52.47;31.13;;;16.70;99.90;;;;;;5076704;28;20533;-51
2022/06/02 08:19:38;;;;;;;14.85;11.48;;;17.10;99.90;;;;;;5076586;28;20158;-50
2022/06/02 08:22:08;;;;;;;15.93;11.60;;;17.40;99.90;;;;;;5081288;28;20192;-50
2022/06/02 08:24:55;;;;;;;7.82;7.03;;;17.90;99.90;;;;;;5076845;28;20169;-51
2022/06/02 08:27:42;;;;;;;12.75;11.20;;;17.70;99.90;;;;;;5076132;28;20557;-51
2022/06/02 08:30:18;;;;;;;10.10;7.85;;;17.30;99.90;;;;;;5094695;28;20230;-51
2022/06/02 08:33:00;;;;;;;10.10;8.15;;;17.40;99.90;;;;;;5095104;28;20501;-52
2022/06/02 08:36:02;;;;;;;9.95;8.18;;;17.20;99.90;;;;;;5094946;28;20166;-52
2022/06/02 08:38:39;;;;;;;10.82;9.48;;;17.40;99.90;;;;;;5094388;28;20157;-51
2022/06/02 08:41:29;;;;;;;9.25;8.18;;;17.70;99.90;;;;;;5093976;28;20645;-52
2022/06/02 08:44:30;;;;;;;9.10;7.88;;;17.50;99.90;;;;;;5094328;28;20157;-50
2022/06/02 08:47:08;;;;;;;8.65;7.63;;;17.30;99.90;;;;;;5094365;28;20177;-50
2022/06/02 08:49:46;;;;;;;7.85;6.85;;;17.00;99.90;;;;;;5093909;28;20535;-51
2022/06/02 08:52:21;;;;;;;7.80;6.88;;;17.30;99.90;;;;;;5093676;28;20213;-52
2022/06/02 08:55:19;;;;;;;6.93;6.25;;;17.80;99.90;;;;;;5093715;28;20160;-51
2022/06/02 08:58:06;;;;;;;12.40;11.10;;;17.80;99.90;;;;;;5093863;28;20504;-50
2022/06/02 09:00:51;;;;;;;7.60;6.90;;;17.50;99.90;;;;;;5093495;28;20244;-51
2022/06/02 09:03:56;;;;;;;10.57;8.07;;;17.30;99.90;;;;;;5075359;28;20256;-52
2022/06/02 09:06:49;;;;;;;4.55;4.05;;;18.00;99.90;;;;;;5093696;28;20180;-51
2022/06/02 09:09:39;;;;;;;6.38;4.72;;;18.20;99.90;;;;;;5093533;28;20173;-52
2022/06/02 09:12:33;;;;;;;7.32;6.05;;;18.40;99.90;;;;;;5093530;28;20177;-51
2022/06/02 09:15:13;;;;;;;6.53;5.90;;;18.50;99.90;;;;;;5093445;28;20157;-51
2022/06/02 09:18:04;;;;;;;7.78;6.75;;;18.90;99.90;;;;;;5091824;28;20252;-51
2022/06/02 09:20:53;;;;;;;11.50;10.27;;;18.50;99.90;;;;;;5091800;28;20536;-51
2022/06/02 09:23:43;;;;;;;9.57;8.68;;;18.50;99.90;;;;;;5045273;28;20690;-51
2022/06/02 09:26:23;;;;;;;16.73;13.98;;;18.70;99.90;;;;;;5093274;28;20196;-52
2022/06/02 09:29:14;;;;;;;16.55;11.90;;;18.90;99.90;;;;;;5093099;28;20213;-52
2022/06/02 09:32:17;;;;;;;9.68;8.68;;;18.80;99.90;;;;;;5093349;28;20177;-52
2022/06/02 09:35:04;;;;;;;9.90;8.55;;;18.80;99.90;;;;;;5093025;28;20218;-55
2022/06/02 09:37:35;;;;;;;9.45;8.63;;;18.80;99.90;;;;;;5093711;28;20625;-53
2022/06/02 09:40:17;;;;;;;9.93;8.80;;;18.70;99.90;;;;;;5094258;28;20174;-51
2022/06/02 09:43:12;;;;;;;12.52;11.30;;;19.30;99.90;;;;;;5094255;28;20238;-52
2022/06/02 09:46:14;;;;;;;10.80;8.60;;;19.70;99.90;;;;;;5038349;28;20187;-52
2022/06/02 09:49:09;;;;;;;8.40;7.60;;;19.90;99.90;;;;;;5081514;28;20216;-51
2022/06/02 09:51:55;;;;;;;10.85;8.30;;;19.70;99.90;;;;;;5093860;28;20216;-53
2022/06/02 09:54:44;;;;;;;10.98;9.35;;;19.60;99.90;;;;;;5094031;28;20257;-51
2022/06/02 09:57:55;;;;;;;9.95;9.00;;;19.60;99.90;;;;;;5094261;28;20214;-50
2022/06/02 10:00:39;;;;;;;9.65;8.65;;;19.60;99.90;;;;;;5093916;28;20165;-49
2022/06/02 10:03:42;;;;;;;12.13;8.82;;;19.50;99.90;;;;;;5093870;28;20188;-50
2022/06/02 10:06:46;;;;;;;9.75;8.65;;;19.60;99.90;;;;;;5075796;28;20165;-50
2022/06/02 10:09:56;;;;;;;13.57;10.15;;;20.20;99.90;;;;;;5093652;28;20188;-53
2022/06/02 10:12:55;;;;;;;10.25;9.25;;;20.40;99.90;;;;;;5068081;28;20189;-50
2022/06/02 10:15:46;;;;;;;9.85;8.95;;;20.50;99.90;;;;;;5093566;28;20157;-49
2022/06/02 10:18:28;;;;;;;10.68;8.73;;;20.30;99.90;;;;;;5093538;28;20190;-52
2022/06/02 10:21:06;;;;;;;8.73;7.93;;;20.50;99.90;;;;;;5093975;28;20173;-50
2022/06/02 10:24:01;;;;;;;9.20;8.25;;;19.90;99.90;;;;;;5093470;28;20161;-50
2022/06/02 10:26:35;;;;;;;11.00;9.77;;;19.50;99.90;;;;;;5075526;28;20174;-51
2022/06/02 10:29:28;;;;;;;9.77;8.35;;;19.50;99.90;;;;;;5093517;28;20208;-49
2022/06/02 10:32:06;;;;;;;10.05;9.05;;;19.60;99.90;;;;;;5093655;28;20534;-52
2022/06/02 10:34:34;;;;;;;10.25;8.63;;;20.00;99.90;;;;;;5092287;28;20210;-52
2022/06/02 10:37:18;;;;;;;10.10;8.98;;;20.30;99.90;;;;;;5093071;28;20660;-53
2022/06/02 10:40:25;;;;;;;9.63;8.18;;;20.10;99.90;;;;;;5093079;28;20248;-52
2022/06/02 10:43:30;;;;;;;9.75;8.75;;;19.90;99.90;;;;;;5037401;28;20184;-52
2022/06/02 10:46:33;;;;;;;8.45;7.65;;;19.70;99.90;;;;;;5093599;28;20176;-52
2022/06/02 10:49:23;;;;;;;8.88;7.47;;;20.30;99.90;;;;;;5092801;28;20215;-52
2022/06/02 10:52:10;;;;;;;9.63;8.70;;;19.90;99.90;;;;;;5092744;28;20320;-50
2022/06/02 10:55:07;;;;;;;9.85;8.80;;;20.20;99.90;;;;;;5074235;28;20177;-52
2022/06/02 10:57:47;;;;;;;8.75;7.95;;;20.00;99.90;;;;;;5092702;28;20499;-52
2022/06/02 11:00:20;;;;;;;10.00;7.55;;;20.20;99.90;;;;;;5074536;28;20226;-53
2022/06/02 11:03:38;;;;;;;11.13;7.97;;;20.50;99.90;;;;;;5092956;28;20173;-53
2022/06/02 11:06:36;;;;;;;7.43;6.65;;;20.80;99.90;;;;;;5092743;28;20188;-53
2022/06/02 11:09:22;;;;;;;8.43;6.40;;;21.10;99.60;;;;;;5092481;28;20212;-53
2022/06/02 11:12:32;;;;;;;7.15;6.35;;;20.90;97.60;;;;;;5092437;28;20980;-52
2022/06/02 11:15:24;;;;;;;6.65;5.68;;;21.00;96.90;;;;;;5053845;28;20509;-50
2022/06/02 11:18:09;;;;;;;9.40;5.15;;;21.30;98.00;;;;;;5092690;28;20169;-52
2022/06/02 11:21:06;;;;;;;7.35;6.60;;;21.10;96.20;;;;;;5040950;28;20185;-53
2022/06/02 11:24:08;;;;;;;5.47;4.95;;;21.20;93.60;;;;;;5092287;28;20696;-52
2022/06/02 11:27:21;;;;;;;7.15;6.40;;;21.30;94.40;;;;;;5092260;28;20194;-53
2022/06/02 11:30:25;;;;;;;6.95;6.10;;;21.40;93.10;;;;;;5074143;28;20184;-53
2022/06/02 11:32:59;;;;;;;5.47;5.05;;;21.50;92.40;;;;;;5092201;28;20161;-52
2022/06/02 11:36:10;;;;;;;8.60;6.85;;;21.60;93.50;;;;;;5092349;28;20178;-53
2022/06/02 11:38:44;;;;;;;7.13;5.57;;;21.60;93.60;;;;;;5092138;28;20169;-51
2022/06/02 11:41:38;;;;;;;7.80;5.13;;;21.60;94.60;;;;;;5092366;28;20173;-52
2022/06/02 11:44:12;;;;;;;5.72;4.95;;;21.70;93.00;;;;;;5074028;28;20173;-52
2022/06/02 11:47:00;;;;;;;5.65;5.07;;;21.70;91.20;;;;;;5091897;28;20206;-54
2022/06/02 11:49:47;;;;;;;5.40;4.90;;;21.50;90.80;;;;;;5092649;28;20246;-53
2022/06/02 11:52:38;;;;;;;6.47;4.72;;;21.70;91.90;;;;;;5091917;28;20308;-53
2022/06/02 11:55:42;;;;;;;5.38;4.68;;;21.60;92.50;;;;;;5091944;28;20253;-50
2022/06/02 11:58:07;;;;;;;5.18;4.68;;;21.60;91.50;;;;;;5092210;28;20260;-50
2022/06/02 12:00:48;;;;;;;6.32;5.72;;;20.90;92.30;;;;;;5092151;28;20257;-51
2022/06/02 12:03:38;;;;;;;6.00;5.38;;;21.00;92.90;;;;;;5091902;28;20602;-51
2022/06/02 12:06:22;;;;;;;6.10;5.50;;;20.90;94.10;;;;;;5091878;28;20161;-52
2022/06/02 12:09:25;;;;;;;4.88;3.78;;;20.90;94.10;;;;;;5091689;28;20747;-50
2022/06/02 12:12:22;;;;;;;6.10;4.10;;;21.00;92.80;;;;;;5091855;28;20172;-51
2022/06/02 12:15:31;;;;;;;5.72;3.35;;;20.80;91.60;;;;;;5091803;28;20162;-52
2022/06/02 12:18:19;;;;;;;4.60;3.88;;;21.10;92.30;;;;;;5074002;28;20239;-51
2022/06/02 12:21:22;;;;;;;3.88;3.22;;;21.30;91.60;;;;;;5091700;28;20161;-52
2022/06/02 12:23:53;;;;;;;5.45;4.30;;;21.10;91.10;;;;;;5073535;28;20588;-50
2022/06/02 12:26:33;;;;;;;7.05;4.30;;;20.90;91.70;;;;;;5091722;28;20522;-51
2022/06/02 12:29:19;;;;;;;4.40;3.72;;;21.10;91.50;;;;;;5091812;28;20205;-50
2022/06/02 12:32:03;;;;;;;4.30;3.90;;;21.60;90.80;;;;;;5090929;28;20180;-52
2022/06/02 12:34:36;;;;;;;4.93;3.65;;;21.90;89.70;;;;;;5073534;28;20172;-51
2022/06/02 12:37:23;;;;;;;4.90;4.20;;;21.70;89.80;;;;;;5091781;28;20169;-51
2022/06/02 12:40:07;;;;;;;4.70;3.83;;;21.60;89.30;;;;;;5085595;28;20524;-53
2022/06/02 12:42:42;;;;;;;29.08;5.38;;;21.70;87.40;;;;;;5071094;28;20388;-49
2022/06/02 12:45:28;;;;;;;4.35;3.90;;;22.00;87.00;;;;;;5071282;28;20173;-52
2022/06/02 12:48:12;;;;;;;5.00;3.97;;;22.00;85.10;;;;;;5071722;28;20212;-50
2022/06/02 12:50:44;;;;;;;4.88;4.13;;;21.90;86.00;;;;;;5071171;28;20166;-49
2022/06/02 12:53:15;;;;;;;4.80;3.70;;;21.90;86.30;;;;;;5071097;28;20275;-50
2022/06/02 12:55:59;;;;;;;5.10;4.13;;;22.00;87.50;;;;;;5071217;28;20197;-49
2022/06/02 12:58:56;;;;;;;4.75;4.28;;;21.90;87.80;;;;;;5074353;28;20169;-52
2022/06/02 13:01:46;;;;;;;4.72;4.32;;;22.30;87.20;;;;;;5074661;28;20190;-52
2022/06/02 13:04:30;;;;;;;4.50;3.88;;;22.40;86.40;;;;;;5074704;28;20209;-51
2022/06/02 13:07:16;;;;;;;4.78;2.97;;;22.60;89.80;;;;;;5074942;28;20172;-53
2022/06/02 13:10:08;;;;;;;5.18;4.68;;;22.70;89.70;;;;;;5074543;28;20686;-52
2022/06/02 13:13:01;;;;;;;4.75;3.75;;;21.80;87.40;;;;;;5074517;28;20173;-52
2022/06/02 13:15:59;;;;;;;4.10;3.53;;;21.80;89.50;;;;;;5075017;28;20202;-52
2022/06/02 13:18:58;;;;;;;5.85;3.85;;;21.70;89.30;;;;;;5074733;28;20162;-52
2022/06/02 13:21:52;;;;;;;4.18;3.78;;;21.50;87.20;;;;;;5074707;28;20162;-50
2022/06/02 13:24:39;;;;;;;6.03;4.13;;;21.90;86.40;;;;;;5074316;28;20211;-52
2022/06/02 13:27:43;;;;;;;5.45;4.85;;;22.20;88.00;;;;;;5074201;28;20623;-50
2022/06/02 13:30:33;;;;;;;5.32;4.40;;;22.50;88.20;;;;;;4992845;28;20267;-52
2022/06/02 13:33:26;;;;;;;10.10;5.97;;;22.60;86.00;;;;;;4992914;28;20555;-52
2022/06/02 13:36:13;;;;;;;8.27;5.97;;;22.40;84.60;;;;;;5059328;28;20666;-53
2022/06/02 13:38:50;;;;;;;11.77;8.43;;;22.90;88.50;;;;;;5074076;28;20166;-53
2022/06/02 13:41:37;;;;;;;10.95;7.38;;;22.90;85.50;;;;;;5074001;28;20201;-52
2022/06/02 13:44:08;;;;;;;4.72;3.70;;;22.90;87.00;;;;;;5074005;28;20657;-53
2022/06/02 13:47:18;;;;;;;9.73;6.30;;;22.70;85.00;;;;;;5073901;28;20210;-53
2022/06/02 13:50:17;;;;;;;4.95;4.05;;;22.80;86.40;;;;;;4992322;28;20184;-49
2022/06/02 13:53:16;;;;;;;13.30;10.48;;;22.90;84.80;;;;;;4991960;28;20216;-49
2022/06/02 13:59:06;;;;;;;6.18;4.45;;;22.90;84.60;;;;;;5073751;28;20177;-50
2022/06/02 14:01:42;;;;;;;5.72;4.18;;;23.00;83.50;;;;;;5073341;28;20170;-50
2022/06/02 14:04:32;;;;;;;5.40;3.40;;;22.80;84.00;;;;;;5073425;28;20208;-50
2022/06/02 14:07:24;;;;;;;3.88;3.55;;;23.20;85.60;;;;;;5073520;28;20166;-50
2022/06/02 14:09:59;;;;;;;5.65;4.45;;;23.20;85.60;;;;;;5073566;28;20185;-50
2022/06/02 14:12:46;;;;;;;18.88;12.00;;;23.00;83.50;;;;;;5073610;28;20228;-50
2022/06/02 14:15:30;;;;;;;4.22;3.78;;;22.90;84.40;;;;;;5072097;28;20228;-49
2022/06/02 14:18:01;;;;;;;3.58;3.00;;;23.10;83.70;;;;;;5072893;28;20162;-49
2022/06/02 14:20:43;;;;;;;4.38;3.95;;;23.30;84.00;;;;;;5073611;28;20185;-53
2022/06/02 14:23:24;;;;;;;3.42;3.05;;;23.40;83.40;;;;;;5082101;28;20646;-49
2022/06/02 14:25:57;;;;;;;5.50;3.00;;;23.60;82.90;;;;;;5090885;28;20173;-49
2022/06/02 14:28:51;;;;;;;4.90;3.10;;;23.50;82.10;;;;;;5093104;28;20197;-49